Los Posos, Valles Caldera, New Mexico Weather observations

Data are for 10 minute period ending at time listed.
 Day   Time   Solar   Ave.   Ave.  Ave.  Vector  Max.   Baro.   Total    
  of    of     Rad.   Air    Rel.  Wind   Wind   Wind  Press.  Precip.   
Year   Day            Temp.  Hum.  Speed  Dir.   Gust                    
2015   (MST)  Kw/m2    F      %     mph   deg.    mph    mb.     in.     
-------------------------------------------------------------------------
 183   11:30   100.00  99999.0   99999  99999.0   99999   99999.0   99999.0   99999.00 
 183   11:40   100.00  99999.0   99999  99999.0   99999   99999.0   99999.0   99999.00 
 183   11:50   100.00  99999.0   99999  99999.0   99999   99999.0   99999.0   99999.00 
 183   12:00   100.00  99999.0   99999  99999.0   99999   99999.0   99999.0   99999.00 
 183   12:10   100.00  99999.0   99999  99999.0   99999   99999.0   99999.0   99999.00 
 183   12:20   100.00  99999.0   99999  99999.0   99999   99999.0   99999.0   99999.00 
 183   12:30   100.00  99999.0   99999  99999.0   99999   99999.0   99999.0   99999.00 
 183   12:40   100.00  99999.0   99999  99999.0   99999   99999.0   99999.0   99999.00 
 183   12:50   100.00  99999.0   99999  99999.0   99999   99999.0   99999.0   99999.00 
 183   13:00   100.00  99999.0   99999  99999.0   99999   99999.0   99999.0   99999.00 
 183   13:10   100.00  99999.0   99999  99999.0   99999   99999.0   99999.0   99999.00 
 183   13:20   100.00  99999.0   99999  99999.0   99999   99999.0   99999.0   99999.00 
 183   13:30   100.00  99999.0   99999  99999.0   99999   99999.0   99999.0   99999.00 
 183   13:40   100.00  99999.0   99999  99999.0   99999   99999.0   99999.0   99999.00 
 183   13:50   100.00  99999.0   99999  99999.0   99999   99999.0   99999.0   99999.00 
 183   14:00   100.00  99999.0   99999  99999.0   99999   99999.0   99999.0   99999.00 
 183   14:10   100.00  99999.0   99999  99999.0   99999   99999.0   99999.0   99999.00 
 183   14:20   100.00  99999.0   99999  99999.0   99999   99999.0   99999.0   99999.00 
 183   14:30   100.00  99999.0   99999  99999.0   99999   99999.0   99999.0   99999.00 
 183   14:40   100.00  99999.0   99999  99999.0   99999   99999.0   99999.0   99999.00 
 183   14:50   100.00  99999.0   99999  99999.0   99999   99999.0   99999.0   99999.00 
 183   15:00   100.00  99999.0   99999  99999.0   99999   99999.0   99999.0   99999.00 
 183   15:10   100.00  99999.0   99999  99999.0   99999   99999.0   99999.0   99999.00 
 183   15:20   100.00  99999.0   99999  99999.0   99999   99999.0   99999.0   99999.00 
 183   15:30   100.00  99999.0   99999  99999.0   99999   99999.0   99999.0   99999.00 
 183   15:40   100.00  99999.0   99999  99999.0   99999   99999.0   99999.0   99999.00 
 183   15:50   100.00  99999.0   99999  99999.0   99999   99999.0   99999.0   99999.00 
 183   16:00   100.00  99999.0   99999  99999.0   99999   99999.0   99999.0   99999.00 
 183   16:10   100.00  99999.0   99999  99999.0   99999   99999.0   99999.0   99999.00 
 183   16:20   100.00  99999.0   99999  99999.0   99999   99999.0   99999.0   99999.00 
 183   16:30   0.01   58.0    87    2.8   217     4.2   99999.0    0.00 
 183   16:40   0.01   57.7    88    2.3     3     5.4   99999.0    0.01 
 183   16:50   0.00   57.4    88    1.6   268     4.2   99999.0    0.00 
 183   17:00   0.00   57.2    88    2.7   322     6.0   99999.0    0.01 
 183   17:10   0.01   56.8    89    2.6   123     4.2   99999.0    0.01 
 183   17:20   100.00  99999.0   99999  99999.0   99999   99999.0   99999.0   99999.00 
 183   17:30   0.01   56.2    92    0.8   226     3.0   99999.0    0.01 
 183   17:40   0.01   56.1    88    2.8    35     8.4   99999.0    0.02 
 183   17:50   0.01   55.8    80    5.3    96     9.6   99999.0    0.01 
 183   18:00   0.01   55.0    84    1.3   124     4.8   99999.0    0.00 
 183   18:10   0.01   54.2    87    2.1    43     7.2   99999.0    0.01 
 183   18:20   0.01   54.3    86    1.6   264     5.4   99999.0    0.00 
 183   18:30   0.01   53.6    90    0.3   149     2.4   99999.0    0.00 
 183   18:40   0.01   53.4    91    1.3    31     4.2   99999.0    0.00 
 183   18:50   0.01   53.2    92    1.8   279     4.2   99999.0    0.00 
 183   19:00   0.01   53.0    92    2.8   246     3.6   99999.0    0.00 
 183   19:10   0.00   52.8    93    0.6   246     3.0   99999.0    0.00 
 183   19:20   0.00   52.7    93    1.5   304     3.6   99999.0    0.00 
 183   19:30   0.00   53.1    88    2.4   353     6.6   99999.0    0.00 
 183   19:40   0.00   53.2    87    3.7   301     5.4   99999.0    0.00 
 183   19:50   0.00   53.6    83    1.7   345     5.4   99999.0    0.00 
 183   20:00   0.00   53.2    87    2.2   272     4.2   99999.0    0.00 
 183   20:10   0.00   52.7    90    1.5   284     3.0   99999.0    0.00 
 183   20:20   0.00   52.5    91    2.0    51     4.8   99999.0    0.00 
 183   20:30   0.00   52.4    90    2.5     5     4.2   99999.0    0.00 
 183   20:40   0.00   52.2    91    2.6   313     4.2   99999.0    0.00 
 183   20:50   0.00   52.0    92    1.8   308     3.6   99999.0    0.00 
 183   21:00   0.00   51.9    92    1.1   260     3.0   99999.0    0.00 
 183   21:10   0.00   51.5    92    3.5   244     5.4   99999.0    0.00 
 183   21:20   0.00   52.4    85    2.7   282     8.4   99999.0    0.00 
 183   21:30   0.00   52.3    87    3.1   227     4.2   99999.0    0.00 
 183   21:40   0.00   51.4    91    2.0   197     4.2   99999.0    0.00 
 183   21:50   0.00   52.0    89    3.8   195     7.8   99999.0    0.00 
 183   22:00   0.00   53.3    84    4.6   184     7.2   99999.0    0.00 
 183   22:10   0.00   53.6    84    3.8   193     6.0   99999.0    0.00 
 183   22:20   0.00   53.0    87    1.6   173     3.6   99999.0    0.00 
 183   22:30   0.00   52.5    89    1.4   353     3.6   99999.0    0.00 
 183   22:40   0.00   52.3    89    0.5   321     2.4   99999.0    0.00 
 183   22:50   0.00   52.4    88    0.0    37     1.2   99999.0    0.00 
 183   23:00   0.00   52.3    89    1.4   142     4.2   99999.0    0.00 
 183   23:10   0.00   52.0    90    0.5   342     2.4   99999.0    0.00 
 183   23:20   0.00   51.3    91    2.1   271     5.4   99999.0    0.00 
 183   23:30   100.00  99999.0   99999  99999.0   99999   99999.0   99999.0   99999.00 
 183   23:40   100.00  99999.0   99999  99999.0   99999   99999.0   99999.0   99999.00 
 183   23:50   100.00  99999.0   99999  99999.0   99999   99999.0   99999.0   99999.00 
 184    0:00   100.00  99999.0   99999  99999.0   99999   99999.0   99999.0   99999.00 
 184    0:10   100.00  99999.0   99999  99999.0   99999   99999.0   99999.0   99999.00 
 184    0:20   100.00  99999.0   99999  99999.0   99999   99999.0   99999.0   99999.00 
 184    0:30   100.00  99999.0   99999  99999.0   99999   99999.0   99999.0   99999.00 
 184    0:40   100.00  99999.0   99999  99999.0   99999   99999.0   99999.0   99999.00 
 184    0:50   100.00  99999.0   99999  99999.0   99999   99999.0   99999.0   99999.00 
 184    1:00   100.00  99999.0   99999  99999.0   99999   99999.0   99999.0   99999.00 
 184    1:10   100.00  99999.0   99999  99999.0   99999   99999.0   99999.0   99999.00 
 184    1:20   100.00  99999.0   99999  99999.0   99999   99999.0   99999.0   99999.00 
 184    1:30   100.00  99999.0   99999  99999.0   99999   99999.0   99999.0   99999.00 
 184    1:40   100.00  99999.0   99999  99999.0   99999   99999.0   99999.0   99999.00 
 184    1:50   100.00  99999.0   99999  99999.0   99999   99999.0   99999.0   99999.00 
 184    2:00   100.00  99999.0   99999  99999.0   99999   99999.0   99999.0   99999.00 
 184    2:10   100.00  99999.0   99999  99999.0   99999   99999.0   99999.0   99999.00 
 184    2:20   100.00  99999.0   99999  99999.0   99999   99999.0   99999.0   99999.00 
 184    2:30   100.00  99999.0   99999  99999.0   99999   99999.0   99999.0   99999.00 
 184    2:40   100.00  99999.0   99999  99999.0   99999   99999.0   99999.0   99999.00 
 184    2:50   100.00  99999.0   99999  99999.0   99999   99999.0   99999.0   99999.00 
 184    3:00   100.00  99999.0   99999  99999.0   99999   99999.0   99999.0   99999.00 
 184    3:10   100.00  99999.0   99999  99999.0   99999   99999.0   99999.0   99999.00 
 184    3:20   100.00  99999.0   99999  99999.0   99999   99999.0   99999.0   99999.00 
 184    3:30   100.00  99999.0   99999  99999.0   99999   99999.0   99999.0   99999.00 
 184    3:40   100.00  99999.0   99999  99999.0   99999   99999.0   99999.0   99999.00 
 184    3:50   100.00  99999.0   99999  99999.0   99999   99999.0   99999.0   99999.00 
 184    4:00   100.00  99999.0   99999  99999.0   99999   99999.0   99999.0   99999.00 
 184    4:10   100.00  99999.0   99999  99999.0   99999   99999.0   99999.0   99999.00 
 184    4:20   100.00  99999.0   99999  99999.0   99999   99999.0   99999.0   99999.00 
 184    4:30   0.00   44.2    96    0.0     0     0.0   99999.0    0.00 
 184    4:40   0.00   44.0    96    0.0     0     0.0   99999.0    0.00 
 184    4:50   0.00   43.6    96    0.0     0     0.0   99999.0    0.00 
 184    5:00   0.00   43.9    96    0.0     0     0.0   99999.0    0.00 
 184    5:10   0.01   43.7    96    0.0     0     0.0   99999.0    0.00 
 184    5:20   100.00  99999.0   99999  99999.0   99999   99999.0   99999.0   99999.00 
 184    5:30   0.03   43.6    96    0.6   252     2.4   99999.0    0.00 
 184    5:40   0.04   44.3    96    0.2   244     1.8   99999.0    0.00 
 184    5:50   0.04   44.7    96    0.0     0     0.0   99999.0    0.00 
 184    6:00   0.05   45.3    96    0.4    45     2.4   99999.0    0.00 
 184    6:10   0.10   45.7    96    0.4   340     1.8   99999.0    0.00 
 184    6:20   0.12   47.1    96    0.0   340     1.2   99999.0    0.00 
 184    6:30   0.17   49.0    96    0.4   248     2.4   99999.0    0.00 
 184    6:40   0.21   51.8    96    0.0     0     0.0   99999.0    0.00 
 184    6:50   0.21   54.3    93    1.0    64     2.4   99999.0    0.00 
 184    7:00   0.19   54.8    87    0.0     0     0.0   99999.0    0.00 
 184    7:10   0.24   56.2    84    0.0     0     0.0   99999.0    0.00 
 184    7:20   0.30   58.1    80    0.1   147     1.8   99999.0    0.00 
 184    7:30   0.34   59.5    72    1.6   121     3.6   99999.0    0.00 
 184    7:40   0.28   58.9    71    3.1   148     6.0   99999.0    0.00 
 184    7:50   0.33   58.4    74    3.5   162     6.0   99999.0    0.00 
 184    8:00   0.44   59.3    73    3.5   147     5.4   99999.0    0.00 
 184    8:10   0.34   59.7    72    3.6   163     6.6   99999.0    0.00 
 184    8:20   0.39   59.4    72    4.5   151     6.6   99999.0    0.00 
 184    8:30   0.49   60.4    71    5.3   154     7.8   99999.0    0.00 
 184    8:40   0.42   60.2    71    5.9   158     8.4   99999.0    0.00 
 184    8:50   0.34   59.9    71    5.4   160     8.4   99999.0    0.00 
 184    9:00   0.40   60.4    72    4.8   160     7.8   99999.0    0.00 
 184    9:10   0.33   60.8    70    4.6   179     8.4   99999.0    0.00 
 184    9:20   0.55   61.2    70    5.0   180     8.4   99999.0    0.00 
 184    9:30   0.61   62.3    67    5.6   165     9.6   99999.0    0.00 
 184    9:40   0.73   63.5    66    4.1   153     8.4   99999.0    0.00 
 184    9:50   0.63   64.3    65    5.4   161     9.0   99999.0    0.00 
 184   10:00   0.49   63.3    67    5.3   148     8.4   99999.0    0.00 
 184   10:10   0.58   64.0    65    4.3   153     8.4   99999.0    0.00 
 184   10:20   0.63   64.4    64    4.9   181     7.8   99999.0    0.00 
 184   10:30   0.77   65.2    63    5.3   153     9.0   99999.0    0.00 
 184   10:40   0.63   65.1    62    3.9   169     7.2   99999.0    0.00 
 184   10:50   0.51   65.5    61    3.1   200     8.4   99999.0    0.00 
 184   11:00   0.55   66.4    60    3.0   198     6.6   99999.0    0.00 
 184   11:10   0.46   66.1    62    3.0   134     6.6   99999.0    0.00 
 184   11:20   0.49   66.4    61    3.5   156     6.6   99999.0    0.00 

Return to Los Posos, Valles Caldera graphs page.


Western Regional Climate Center,wrcc@dri.edu